Weather reports worldwide

Advertisment
Epinal, France (7173): temperature & dewpoint: 19.09.2018 12:00:00 - 25.09.2018 12:00:00 (CEST)Epinal, France (7173): wind speed & gusts: 19.09.2018 12:00:00 - 25.09.2018 12:00:00 (CEST)Epinal, France (7173): wind direction: 19.09.2018 12:00:00 - 25.09.2018 12:00:00 (CEST)Epinal, France (7173): sunshine duration: 19.09.2018 12:00:00 - 25.09.2018 12:00:00 (CEST)Epinal, France (7173): precipitation: 19.09.2018 12:00:00 - 25.09.2018 12:00:00 (CEST)
Date & Time tt [°C] td [°C] ff [km/h] ff [kn] fx [km/h] fx [kn] dd sd [min] rr [mm]
25.09.2018 12:00:00 - - - - - - - - -
25.09.2018 11:00:00 10,9 5,2 16 9 26 14 N 60 0,0
25.09.2018 10:00:00 9,0 5,4 13 7 18 10 NNE 60 0,0
25.09.2018 09:00:00 6,8 4,6 5 3 9 5 N 60 0,0
25.09.2018 08:00:00 5,0 3,3 2 1 9 5 NNE 6 -
25.09.2018 07:00:00 4,4 2,9 4 2 9 5 NE 0 0,0
25.09.2018 06:00:00 4,1 2,9 0 0 9 5 N 0 0,0
25.09.2018 05:00:00 5,4 3,6 8 4 15 8 NE 0 0,0
25.09.2018 04:00:00 3,8 2,9 2 1 11 6 ESE 0 0,0
25.09.2018 03:00:00 5,5 4,1 5 3 13 7 NE 0 0,0
25.09.2018 02:00:00 4,0 3,3 0 0 5 3 N 0 -
25.09.2018 01:00:00 4,5 3,8 4 2 5 3 ESE 0 0,0
25.09.2018 00:00:00 5,5 4,1 4 2 8 4 S 0 0,0
24.09.2018 23:00:00 6,9 3,7 4 2 8 4 NE 0 0,0
24.09.2018 22:00:00 8,4 3,8 5 3 11 6 ENE 0 0,0
24.09.2018 21:00:00 9,6 4,0 8 4 15 8 NE 0 0,0
24.09.2018 20:00:00 11,6 3,1 9 5 21 11 N 0 -
24.09.2018 19:00:00 13,4 2,9 11 6 31 17 N 60 0,0
24.09.2018 18:00:00 13,9 2,5 11 6 29 16 NNE 54 0,0
24.09.2018 17:00:00 14,7 3,5 13 7 31 17 N 54 0,0
24.09.2018 16:00:00 14,7 3,2 21 11 35 19 N 54 0,0
24.09.2018 15:00:00 14,5 2,4 15 8 34 18 NE 60 0,0
24.09.2018 14:00:00 14,1 3,2 16 9 29 16 NNE 36 -
24.09.2018 13:00:00 12,6 5,0 16 9 28 15 N 42 0,0
24.09.2018 12:00:00 12,2 5,1 13 7 26 14 NE 54 0,0
24.09.2018 11:00:00 10,6 7,3 9 5 22 12 NNE 48 0,0
24.09.2018 10:00:00 8,8 6,9 15 8 21 11 NNE 12 0,0
24.09.2018 09:00:00 7,8 6,9 11 6 18 10 N 0 0,0
24.09.2018 08:00:00 7,6 6,5 11 6 22 12 N 0 -
24.09.2018 07:00:00 7,8 6,7 8 4 13 7 NNE 0 0,0
24.09.2018 06:00:00 7,7 6,8 8 4 13 7 N 0 0,0
24.09.2018 05:00:00 7,3 6,6 5 3 16 9 N 0 0,2
24.09.2018 04:00:00 8,5 7,0 5 3 11 6 NNE 0 0,0
24.09.2018 03:00:00 9,3 7,6 9 5 24 13 N 0 0,2
24.09.2018 02:00:00 9,6 8,7 5 3 24 13 N 0 -
24.09.2018 01:00:00 10,7 9,0 11 6 22 12 NNW 0 0,0
24.09.2018 00:00:00 10,6 8,4 13 7 28 15 NNW 0 0,0
23.09.2018 23:00:00 11,1 9,0 13 7 34 18 NNW 0 0,0
23.09.2018 22:00:00 12,1 10,0 13 7 34 18 NNW 0 0,0
23.09.2018 21:00:00 12,5 10,7 13 7 42 23 NNW 0 0,4
23.09.2018 20:00:00 13,8 11,8 22 12 63 34 NW 0 -
23.09.2018 19:00:00 16,4 15,4 22 12 76 41 WNW 0 15,0
23.09.2018 18:00:00 21,9 16,4 31 17 55 30 SSW 0 0,0
23.09.2018 17:00:00 21,1 16,5 28 15 55 30 SSW 0 0,0
23.09.2018 16:00:00 20,9 16,5 34 18 59 32 SSW 0 0,0
23.09.2018 15:00:00 21,2 16,8 34 18 55 30 SSW 24 0,0
23.09.2018 14:00:00 20,1 16,5 26 14 48 26 SSW 0 -
23.09.2018 13:00:00 19,0 15,7 26 14 50 27 SSW 0 0,0
23.09.2018 12:00:00 18,2 15,6 28 15 55 30 SSW 0 0,0
23.09.2018 11:00:00 18,8 14,3 29 16 52 28 SSW 0 0,0
23.09.2018 10:00:00 18,3 13,6 31 17 54 29 SSW 0 0,0
23.09.2018 09:00:00 17,9 13,0 26 14 48 26 SSW 0 0,2
23.09.2018 08:00:00 17,9 12,1 24 13 54 29 SSW 0 -
23.09.2018 07:00:00 18,3 11,4 28 15 44 24 SSW 0 0,0
23.09.2018 06:00:00 18,1 10,9 26 14 50 27 SSW 0 0,0
23.09.2018 05:00:00 17,8 10,7 26 14 52 28 SSW 0 0,0
23.09.2018 04:00:00 17,4 9,3 18 10 44 24 SSW 0 0,0
23.09.2018 03:00:00 17,2 8,6 26 14 50 27 SSW 0 0,0
23.09.2018 02:00:00 17,3 7,3 24 13 41 22 S 0 -
23.09.2018 01:00:00 15,9 9,1 18 10 54 29 SSW 0 0,0
23.09.2018 00:00:00 15,2 8,2 15 8 28 15 S 0 0,0
22.09.2018 23:00:00 14,9 7,2 9 5 24 13 S 0 0,0
22.09.2018 22:00:00 14,9 7,7 11 6 21 11 S 0 0,0
22.09.2018 21:00:00 15,1 7,6 8 4 11 6 S 0 0,0
22.09.2018 20:00:00 15,4 7,2 4 2 11 6 SSE 0 -
22.09.2018 19:00:00 15,7 6,9 5 3 18 10 S 0 0,0
22.09.2018 18:00:00 16,2 6,0 13 7 26 14 SSW 0 0,0
22.09.2018 17:00:00 17,4 5,3 13 7 22 12 SSW 30 0,0
22.09.2018 16:00:00 17,4 5,3 9 5 21 11 SW 18 0,0
22.09.2018 15:00:00 17,1 5,1 8 4 24 13 SW 42 0,0
22.09.2018 14:00:00 16,5 6,0 13 7 28 15 WSW 54 -
22.09.2018 13:00:00 15,6 7,1 9 5 24 13 SW 42 0,0
22.09.2018 12:00:00 14,3 8,9 9 5 15 8 S 18 0,2
22.09.2018 11:00:00 12,4 9,2 9 5 15 8 SSW 6 0,0
22.09.2018 10:00:00 11,7 9,3 5 3 11 6 S 6 0,0
22.09.2018 09:00:00 10,4 9,5 4 2 8 4 SW 18 0,0
22.09.2018 08:00:00 8,4 8,1 2 1 8 4 E 0 -
22.09.2018 07:00:00 8,5 8,2 2 1 8 4 S 0 0,0
22.09.2018 06:00:00 9,0 8,5 4 2 11 6 ESE 0 0,0
22.09.2018 05:00:00 10,2 9,1 5 3 13 7 SSW 0 0,0
22.09.2018 04:00:00 10,9 9,8 8 4 13 7 S 0 0,0
22.09.2018 03:00:00 11,4 10,0 9 5 16 9 SSW 0 0,0
22.09.2018 02:00:00 11,7 10,3 9 5 18 10 SSW 0 -
22.09.2018 01:00:00 11,7 10,6 13 7 18 10 SSW 0 0,0
22.09.2018 00:00:00 11,4 10,3 9 5 18 10 SSW 0 0,0
21.09.2018 23:00:00 11,5 10,2 9 5 22 12 SSW 0 0,0
21.09.2018 22:00:00 11,9 10,5 11 6 18 10 SSW 0 0,0
21.09.2018 21:00:00 11,9 10,8 15 8 22 12 SSW 0 0,0
21.09.2018 20:00:00 12,4 11,0 13 7 22 12 SSW 0 -
21.09.2018 19:00:00 13,1 11,2 11 6 18 10 S 0 0,0
21.09.2018 18:00:00 13,3 11,7 9 5 26 14 SW 0 0,0
21.09.2018 17:00:00 12,7 10,8 16 9 34 18 W 0 3,0
21.09.2018 16:00:00 12,8 11,7 21 11 54 29 WNW 0 1,0
21.09.2018 15:00:00 21,8 12,9 26 14 52 28 SW 0 0,0
21.09.2018 14:00:00 22,9 11,9 28 15 54 29 SW 6 -
21.09.2018 13:00:00 22,1 12,1 29 16 44 24 SW 0 0,0
21.09.2018 12:00:00 21,5 13,4 22 12 37 20 SSW 0 0,0
21.09.2018 11:00:00 21,1 14,0 21 11 35 19 SSW 6 0,0
21.09.2018 10:00:00 21,1 13,8 22 12 39 21 SW 30 0,0
21.09.2018 09:00:00 20,7 13,4 22 12 48 26 SSW 24 0,0
21.09.2018 08:00:00 20,8 13,2 26 14 46 25 SSW 6 -
21.09.2018 07:00:00 21,3 12,7 26 14 48 26 SSW 0 0,0
21.09.2018 06:00:00 20,7 13,4 15 8 31 17 S 0 0,0
21.09.2018 05:00:00 18,1 13,2 8 4 13 7 SSW 0 0,0
21.09.2018 04:00:00 16,3 13,2 2 1 4 2 NNW 0 0,0
21.09.2018 03:00:00 15,8 12,9 0 0 8 4 N 0 0,0
21.09.2018 02:00:00 16,7 13,0 5 3 9 5 SW 0 -
21.09.2018 01:00:00 19,7 13,4 9 5 15 8 SSE 0 0,0
21.09.2018 00:00:00 17,6 13,3 4 2 8 4 S 0 0,0
20.09.2018 23:00:00 16,4 13,1 4 2 8 4 S 0 0,0
20.09.2018 22:00:00 17,3 13,2 2 1 4 2 ENE 0 0,0
20.09.2018 21:00:00 19,1 13,3 2 1 4 2 S 0 0,0
20.09.2018 20:00:00 21,5 13,4 5 3 9 5 SSE 0 -
20.09.2018 19:00:00 25,3 12,8 8 4 18 10 SSW 30 0,0
20.09.2018 18:00:00 27,1 12,7 15 8 22 12 SSW 60 0,0
20.09.2018 17:00:00 27,7 13,6 9 5 35 19 SSW 60 0,0
20.09.2018 16:00:00 27,7 14,3 9 5 28 15 SW 60 0,0
20.09.2018 15:00:00 26,9 14,3 9 5 26 14 SSW 54 0,0
20.09.2018 14:00:00 25,7 13,9 15 8 28 15 SW 60 -
20.09.2018 13:00:00 25,9 14,7 9 5 21 11 W 60 0,0
20.09.2018 12:00:00 24,9 14,4 11 6 24 13 SW 60 0,0
20.09.2018 11:00:00 23,7 14,9 8 4 15 8 WSW 60 0,0
20.09.2018 10:00:00 20,7 14,3 5 3 8 4 S 60 0,0
20.09.2018 09:00:00 16,0 13,7 0 0 2 1 N 60 0,0
20.09.2018 08:00:00 12,1 11,6 2 1 4 2 SE 6 -
20.09.2018 07:00:00 12,5 11,9 4 2 4 2 ESE 0 0,0
20.09.2018 06:00:00 13,0 12,4 4 2 5 3 ESE 0 0,0
20.09.2018 05:00:00 13,3 12,5 0 0 4 2 N 0 0,0
20.09.2018 04:00:00 13,3 11,9 0 0 4 2 N 0 0,0
20.09.2018 03:00:00 14,6 13,1 4 2 5 3 SE 0 0,0
20.09.2018 02:00:00 14,5 12,4 0 0 5 3 N 0 -
20.09.2018 01:00:00 15,4 13,4 2 1 4 2 E 0 0,0
20.09.2018 00:00:00 16,5 13,8 2 1 4 2 E 0 0,0
19.09.2018 23:00:00 17,7 14,0 0 0 4 2 N 0 0,0
19.09.2018 22:00:00 18,8 14,1 0 0 - - N 0 0,0
19.09.2018 21:00:00 19,8 13,5 - - - - - 0 0,0
19.09.2018 20:00:00 23,7 13,8 - - - - - 12 0,0
19.09.2018 19:00:00 26,8 13,5 - - - - - 60 0,0
19.09.2018 18:00:00 28,4 12,7 13 7 28 15 WSW 60 0,0
19.09.2018 17:00:00 29,9 12,3 13 7 - - SW - -
19.09.2018 16:00:00 28,9 12,3 11 6 22 12 SW 60 0,0
19.09.2018 15:00:00 28,9 12,3 11 6 24 13 W 60 0,0
19.09.2018 14:00:00 27,8 13,3 11 6 - - SW 60 0,0
19.09.2018 13:00:00 27,0 13,7 13 7 - - W - -
19.09.2018 12:00:00 26,5 14,9 4 2 - - SW - -

tt = temperature
td = dewpoint
ff = wind speed
fx = gusts
dd = wind direction
sd = sunshine duration
rr = precipitation

Next stations